sensor_id;sensor_type;location;lat;lon;timestamp;pressure;altitude;pressure_sealevel;temperature;humidity
9721;BME280;4899;42.644;23.366;2023-05-10T00:02:03;94524.53;;;9.34;100.00
9721;BME280;4899;42.644;23.366;2023-05-10T00:04:28;94527.84;;;9.35;100.00
9721;BME280;4899;42.644;23.366;2023-05-10T00:06:54;94529.38;;;9.36;100.00
9721;BME280;4899;42.644;23.366;2023-05-10T00:09:20;94528.44;;;9.32;100.00
9721;BME280;4899;42.644;23.366;2023-05-10T00:11:45;94525.09;;;9.31;100.00
9721;BME280;4899;42.644;23.366;2023-05-10T00:14:11;94525.69;;;9.28;100.00
9721;BME280;4899;42.644;23.366;2023-05-10T00:16:37;94504.63;;;9.17;100.00
9721;BME280;4899;42.644;23.366;2023-05-10T00:19:02;94509.94;;;9.21;100.00
9721;BME280;4899;42.644;23.366;2023-05-10T00:21:28;94524.00;;;9.23;100.00
9721;BME280;4899;42.644;23.366;2023-05-10T00:23:54;94509.56;;;9.14;100.00
9721;BME280;4899;42.644;23.366;2023-05-10T00:26:19;94521.34;;;9.15;100.00
9721;BME280;4899;42.644;23.366;2023-05-10T00:28:45;94511.66;;;9.12;100.00
9721;BME280;4899;42.644;23.366;2023-05-10T00:31:11;94509.69;;;9.09;100.00
9721;BME280;4899;42.644;23.366;2023-05-10T00:33:37;94517.66;;;9.07;100.00
9721;BME280;4899;42.644;23.366;2023-05-10T00:36:02;94512.81;;;9.06;100.00
9721;BME280;4899;42.644;23.366;2023-05-10T00:38:28;94513.28;;;9.08;100.00
9721;BME280;4899;42.644;23.366;2023-05-10T00:40:53;94505.53;;;8.99;100.00
9721;BME280;4899;42.644;23.366;2023-05-10T00:43:19;94510.56;;;9.04;100.00
9721;BME280;4899;42.644;23.366;2023-05-10T00:45:44;94509.50;;;9.05;100.00
9721;BME280;4899;42.644;23.366;2023-05-10T00:48:09;94471.84;;;8.78;100.00
9721;BME280;4899;42.644;23.366;2023-05-10T00:50:35;94503.91;;;9.03;100.00
9721;BME280;4899;42.644;23.366;2023-05-10T00:53:02;94515.69;;;9.04;100.00
9721;BME280;4899;42.644;23.366;2023-05-10T00:55:27;94499.94;;;8.97;100.00
9721;BME280;4899;42.644;23.366;2023-05-10T00:57:53;94499.66;;;8.99;100.00
9721;BME280;4899;42.644;23.366;2023-05-10T01:00:19;94502.22;;;8.99;100.00
9721;BME280;4899;42.644;23.366;2023-05-10T01:02:45;94509.44;;;8.97;100.00
9721;BME280;4899;42.644;23.366;2023-05-10T01:05:12;94511.72;;;8.98;100.00
9721;BME280;4899;42.644;23.366;2023-05-10T01:07:37;94504.13;;;8.93;100.00
9721;BME280;4899;42.644;23.366;2023-05-10T01:10:04;94509.53;;;8.91;100.00
9721;BME280;4899;42.644;23.366;2023-05-10T01:12:29;94448.25;;;8.54;100.00
9721;BME280;4899;42.644;23.366;2023-05-10T01:14:55;94494.16;;;8.78;100.00
9721;BME280;4899;42.644;23.366;2023-05-10T01:17:21;94489.63;;;8.75;100.00
9721;BME280;4899;42.644;23.366;2023-05-10T01:19:47;94495.97;;;8.77;100.00
9721;BME280;4899;42.644;23.366;2023-05-10T01:41:37;94478.31;;;8.62;100.00
9721;BME280;4899;42.644;23.366;2023-05-10T01:47:02;94477.22;;;8.41;100.00
9721;BME280;4899;42.644;23.366;2023-05-10T01:49:32;94475.69;;;8.40;100.00
9721;BME280;4899;42.644;23.366;2023-05-10T01:52:14;94469.69;;;8.30;100.00
9721;BME280;4899;42.644;23.366;2023-05-10T01:54:49;94468.75;;;8.26;100.00
9721;BME280;4899;42.644;23.366;2023-05-10T01:57:16;94459.72;;;8.15;100.00
9721;BME280;4899;42.644;23.366;2023-05-10T01:59:43;94473.56;;;8.14;100.00
9721;BME280;4899;42.644;23.366;2023-05-10T02:02:12;94480.22;;;8.15;100.00
9721;BME280;4899;42.644;23.366;2023-05-10T02:04:39;94453.66;;;7.97;100.00
9721;BME280;4899;42.644;23.366;2023-05-10T02:07:06;94482.03;;;8.01;100.00
9721;BME280;4899;42.644;23.366;2023-05-10T02:09:34;94488.75;;;7.97;100.00
9721;BME280;4899;42.644;23.366;2023-05-10T02:12:01;94474.13;;;7.84;100.00
9721;BME280;4899;42.644;23.366;2023-05-10T02:14:28;94470.13;;;7.78;100.00
9721;BME280;4899;42.644;23.366;2023-05-10T02:16:56;94489.75;;;7.68;100.00
9721;BME280;4899;42.644;23.366;2023-05-10T02:19:23;94484.41;;;7.51;100.00
9721;BME280;4899;42.644;23.366;2023-05-10T02:21:51;94481.16;;;7.46;100.00
9721;BME280;4899;42.644;23.366;2023-05-10T02:24:18;94484.13;;;7.34;100.00
9721;BME280;4899;42.644;23.366;2023-05-10T02:26:45;94484.91;;;7.16;100.00
9721;BME280;4899;42.644;23.366;2023-05-10T02:29:13;94489.28;;;7.15;100.00
9721;BME280;4899;42.644;23.366;2023-05-10T02:31:39;94482.03;;;7.03;100.00
9721;BME280;4899;42.644;23.366;2023-05-10T02:34:09;94479.56;;;6.98;100.00
9721;BME280;4899;42.644;23.366;2023-05-10T02:36:36;94489.22;;;7.01;100.00
9721;BME280;4899;42.644;23.366;2023-05-10T02:39:03;94440.03;;;6.72;100.00
9721;BME280;4899;42.644;23.366;2023-05-10T02:41:32;94479.25;;;6.81;100.00
9721;BME280;4899;42.644;23.366;2023-05-10T02:43:59;94468.56;;;6.79;100.00
9721;BME280;4899;42.644;23.366;2023-05-10T02:46:26;94461.72;;;6.74;100.00
9721;BME280;4899;42.644;23.366;2023-05-10T02:48:51;94479.81;;;6.78;100.00
9721;BME280;4899;42.644;23.366;2023-05-10T02:51:18;94480.78;;;6.82;100.00
9721;BME280;4899;42.644;23.366;2023-05-10T02:53:46;94466.00;;;6.79;100.00
9721;BME280;4899;42.644;23.366;2023-05-10T02:56:16;94466.00;;;6.79;100.00
9721;BME280;4899;42.644;23.366;2023-05-10T02:58:44;94469.94;;;6.71;100.00
9721;BME280;4899;42.644;23.366;2023-05-10T03:01:10;94468.63;;;6.74;100.00
9721;BME280;4899;42.644;23.366;2023-05-10T03:03:35;94477.25;;;6.78;100.00
9721;BME280;4899;42.644;23.366;2023-05-10T03:06:01;94477.00;;;6.79;100.00
9721;BME280;4899;42.644;23.366;2023-05-10T03:08:26;94474.34;;;6.85;100.00
9721;BME280;4899;42.644;23.366;2023-05-10T03:11:16;94479.94;;;6.87;100.00
9721;BME280;4899;42.644;23.366;2023-05-10T03:14:10;94453.63;;;6.67;100.00
9721;BME280;4899;42.644;23.366;2023-05-10T03:16:45;94472.47;;;6.90;100.00
9721;BME280;4899;42.644;23.366;2023-05-10T03:19:17;94481.41;;;6.93;100.00
9721;BME280;4899;42.644;23.366;2023-05-10T03:21:50;94477.81;;;6.94;100.00
9721;BME280;4899;42.644;23.366;2023-05-10T03:24:20;94469.94;;;6.90;100.00
9721;BME280;4899;42.644;23.366;2023-05-10T03:26:47;94472.47;;;6.90;100.00
9721;BME280;4899;42.644;23.366;2023-05-10T03:29:14;94475.19;;;6.99;100.00
9721;BME280;4899;42.644;23.366;2023-05-10T03:31:41;94491.78;;;7.01;100.00
9721;BME280;4899;42.644;23.366;2023-05-10T03:34:07;94486.59;;;7.06;100.00
9721;BME280;4899;42.644;23.366;2023-05-10T03:36:32;94479.41;;;7.08;100.00
9721;BME280;4899;42.644;23.366;2023-05-10T03:38:58;94490.38;;;7.09;100.00
9721;BME280;4899;42.644;23.366;2023-05-10T03:41:23;94486.78;;;7.10;100.00
9721;BME280;4899;42.644;23.366;2023-05-10T03:43:50;94493.63;;;7.15;100.00
9721;BME280;4899;42.644;23.366;2023-05-10T03:46:16;94490.03;;;7.16;100.00
9721;BME280;4899;42.644;23.366;2023-05-10T03:48:41;94490.50;;;7.18;100.00
9721;BME280;4899;42.644;23.366;2023-05-10T03:51:07;94501.78;;;7.17;100.00
9721;BME280;4899;42.644;23.366;2023-05-10T03:53:33;94502.81;;;7.16;100.00
9721;BME280;4899;42.644;23.366;2023-05-10T03:55:58;94509.13;;;7.23;100.00
9721;BME280;4899;42.644;23.366;2023-05-10T03:58:23;94495.56;;;7.23;100.00
9721;BME280;4899;42.644;23.366;2023-05-10T04:00:50;94508.50;;;7.31;100.00
9721;BME280;4899;42.644;23.366;2023-05-10T04:03:15;94504.59;;;7.34;100.00
9721;BME280;4899;42.644;23.366;2023-05-10T04:05:41;94490.19;;;7.24;100.00
9721;BME280;4899;42.644;23.366;2023-05-10T04:08:06;94506.31;;;7.38;100.00
9721;BME280;4899;42.644;23.366;2023-05-10T04:10:32;94517.03;;;7.40;100.00
9721;BME280;4899;42.644;23.366;2023-05-10T04:12:57;94514.16;;;7.47;100.00
9721;BME280;4899;42.644;23.366;2023-05-10T04:15:23;94519.94;;;7.53;100.00
9721;BME280;4899;42.644;23.366;2023-05-10T04:17:49;94518.72;;;7.50;100.00
9721;BME280;4899;42.644;23.366;2023-05-10T04:20:15;94519.28;;;7.47;100.00
9721;BME280;4899;42.644;23.366;2023-05-10T04:22:41;94509.91;;;7.56;100.00
9721;BME280;4899;42.644;23.366;2023-05-10T04:25:06;94518.88;;;7.72;100.00
9721;BME280;4899;42.644;23.366;2023-05-10T04:27:32;94516.38;;;7.67;100.00
9721;BME280;4899;42.644;23.366;2023-05-10T04:29:58;94517.19;;;7.82;100.00
9721;BME280;4899;42.644;23.366;2023-05-10T04:32:23;94524.69;;;7.92;100.00
9721;BME280;4899;42.644;23.366;2023-05-10T04:34:49;94516.03;;;7.88;100.00
9721;BME280;4899;42.644;23.366;2023-05-10T04:37:15;94520.81;;;7.94;100.00
9721;BME280;4899;42.644;23.366;2023-05-10T04:39:41;94510.16;;;7.87;100.00
9721;BME280;4899;42.644;23.366;2023-05-10T04:42:06;94511.88;;;7.92;100.00
9721;BME280;4899;42.644;23.366;2023-05-10T04:44:32;94518.75;;;7.96;100.00
9721;BME280;4899;42.644;23.366;2023-05-10T04:46:58;94510.78;;;7.98;100.00
9721;BME280;4899;42.644;23.366;2023-05-10T04:49:24;94515.22;;;8.06;100.00
9721;BME280;4899;42.644;23.366;2023-05-10T04:51:49;94511.91;;;8.06;100.00
9721;BME280;4899;42.644;23.366;2023-05-10T04:54:14;94512.56;;;8.11;100.00
9721;BME280;4899;42.644;23.366;2023-05-10T04:56:40;94508.69;;;8.14;100.00
9721;BME280;4899;42.644;23.366;2023-05-10T04:59:06;94519.53;;;8.24;100.00
9721;BME280;4899;42.644;23.366;2023-05-10T05:01:31;94514.59;;;8.28;100.00
9721;BME280;4899;42.644;23.366;2023-05-10T05:03:57;94518.09;;;8.32;100.00
9721;BME280;4899;42.644;23.366;2023-05-10T05:06:22;94522.03;;;8.43;100.00
9721;BME280;4899;42.644;23.366;2023-05-10T05:08:49;94510.75;;;8.44;100.00
9721;BME280;4899;42.644;23.366;2023-05-10T05:11:17;94514.03;;;8.58;100.00
9721;BME280;4899;42.644;23.366;2023-05-10T05:13:42;94531.06;;;8.68;100.00
9721;BME280;4899;42.644;23.366;2023-05-10T05:16:08;94527.50;;;8.78;100.00
9721;BME280;4899;42.644;23.366;2023-05-10T05:18:34;94527.22;;;8.79;100.00
9721;BME280;4899;42.644;23.366;2023-05-10T05:20:59;94525.91;;;8.68;100.00
9721;BME280;4899;42.644;23.366;2023-05-10T05:23:25;94530.06;;;8.78;100.00
9721;BME280;4899;42.644;23.366;2023-05-10T05:25:53;94533.41;;;8.78;100.00
9721;BME280;4899;42.644;23.366;2023-05-10T05:28:20;94522.78;;;8.71;100.00
9721;BME280;4899;42.644;23.366;2023-05-10T05:30:45;94529.97;;;8.83;100.00
9721;BME280;4899;42.644;23.366;2023-05-10T05:33:11;94532.53;;;8.83;100.00
9721;BME280;4899;42.644;23.366;2023-05-10T05:35:38;94528.75;;;8.80;100.00
9721;BME280;4899;42.644;23.366;2023-05-10T05:38:03;94539.47;;;8.82;100.00
9721;BME280;4899;42.644;23.366;2023-05-10T05:40:29;94548.09;;;8.86;100.00
9721;BME280;4899;42.644;23.366;2023-05-10T05:42:54;94542.16;;;8.77;100.00
9721;BME280;4899;42.644;23.366;2023-05-10T05:45:19;94546.22;;;8.78;100.00
9721;BME280;4899;42.644;23.366;2023-05-10T05:47:45;94534.38;;;8.69;100.00
9721;BME280;4899;42.644;23.366;2023-05-10T05:50:10;94535.13;;;8.69;100.00
9721;BME280;4899;42.644;23.366;2023-05-10T05:52:36;94539.09;;;8.75;100.00
9721;BME280;4899;42.644;23.366;2023-05-10T05:55:01;94551.06;;;8.80;100.00
9721;BME280;4899;42.644;23.366;2023-05-10T05:57:27;94545.75;;;8.76;100.00
9721;BME280;4899;42.644;23.366;2023-05-10T05:59:53;94556.47;;;8.78;100.00
9721;BME280;4899;42.644;23.366;2023-05-10T06:02:18;94548.44;;;8.71;100.00
9721;BME280;4899;42.644;23.366;2023-05-10T06:04:44;94550.31;;;8.79;100.00
9721;BME280;4899;42.644;23.366;2023-05-10T06:07:09;94543.94;;;8.77;100.00
9721;BME280;4899;42.644;23.366;2023-05-10T06:09:35;94550.59;;;8.78;100.00
9721;BME280;4899;42.644;23.366;2023-05-10T06:12:00;94534.91;;;8.66;100.00
9721;BME280;4899;42.644;23.366;2023-05-10T06:14:27;94538.16;;;8.71;100.00
9721;BME280;4899;42.644;23.366;2023-05-10T06:16:53;94528.75;;;8.67;100.00
9721;BME280;4899;42.644;23.366;2023-05-10T06:19:18;94548.69;;;8.83;100.00
9721;BME280;4899;42.644;23.366;2023-05-10T06:21:44;94556.75;;;8.90;100.00
9721;BME280;4899;42.644;23.366;2023-05-10T06:24:09;94563.78;;;8.99;100.00
9721;BME280;4899;42.644;23.366;2023-05-10T06:26:35;94567.28;;;9.03;100.00
9721;BME280;4899;42.644;23.366;2023-05-10T06:29:00;94555.78;;;9.00;100.00
9721;BME280;4899;42.644;23.366;2023-05-10T06:31:26;94554.56;;;8.98;100.00
9721;BME280;4899;42.644;23.366;2023-05-10T06:33:51;94562.91;;;9.03;100.00
9721;BME280;4899;42.644;23.366;2023-05-10T06:36:17;94567.06;;;9.13;100.00
9721;BME280;4899;42.644;23.366;2023-05-10T06:38:43;94573.06;;;9.22;100.00
9721;BME280;4899;42.644;23.366;2023-05-10T06:41:08;94571.72;;;9.24;100.00
9721;BME280;4899;42.644;23.366;2023-05-10T06:43:33;94563.44;;;9.28;100.00
9721;BME280;4899;42.644;23.366;2023-05-10T06:45:59;94557.25;;;9.29;100.00
9721;BME280;4899;42.644;23.366;2023-05-10T06:48:25;94570.16;;;9.37;100.00
9721;BME280;4899;42.644;23.366;2023-05-10T06:50:50;94566.81;;;9.37;100.00
9721;BME280;4899;42.644;23.366;2023-05-10T06:53:16;94552.75;;;9.34;100.00
9721;BME280;4899;42.644;23.366;2023-05-10T06:55:41;94562.56;;;9.32;100.00
9721;BME280;4899;42.644;23.366;2023-05-10T06:58:06;94557.31;;;9.37;100.00
9721;BME280;4899;42.644;23.366;2023-05-10T07:00:32;94568.63;;;9.36;100.00
9721;BME280;4899;42.644;23.366;2023-05-10T07:02:57;94568.63;;;9.36;100.00
9721;BME280;4899;42.644;23.366;2023-05-10T07:05:23;94563.38;;;9.19;100.00
9721;BME280;4899;42.644;23.366;2023-05-10T07:07:49;94572.19;;;9.27;100.00
9721;BME280;4899;42.644;23.366;2023-05-10T07:10:14;94568.97;;;9.21;100.00
9721;BME280;4899;42.644;23.366;2023-05-10T07:12:40;94581.22;;;9.24;100.00
9721;BME280;4899;42.644;23.366;2023-05-10T07:15:06;94582.75;;;9.25;100.00
9721;BME280;4899;42.644;23.366;2023-05-10T07:17:31;94579.72;;;9.23;100.00
9721;BME280;4899;42.644;23.366;2023-05-10T07:19:58;94572.13;;;9.18;100.00
9721;BME280;4899;42.644;23.366;2023-05-10T07:22:24;94574.41;;;9.19;100.00
9721;BME280;4899;42.644;23.366;2023-05-10T07:24:49;94581.97;;;9.24;100.00
9721;BME280;4899;42.644;23.366;2023-05-10T07:27:15;94581.63;;;9.17;100.00
9721;BME280;4899;42.644;23.366;2023-05-10T07:29:40;94582.28;;;9.23;100.00
9721;BME280;4899;42.644;23.366;2023-05-10T07:32:06;94589.41;;;9.26;100.00
9721;BME280;4899;42.644;23.366;2023-05-10T07:34:31;94567.25;;;9.16;100.00
9721;BME280;4899;42.644;23.366;2023-05-10T07:36:59;94587.41;;;9.23;100.00
9721;BME280;4899;42.644;23.366;2023-05-10T07:39:26;94589.41;;;9.26;100.00
9721;BME280;4899;42.644;23.366;2023-05-10T07:41:51;94597.75;;;9.32;100.00
9721;BME280;4899;42.644;23.366;2023-05-10T07:44:17;94586.34;;;9.24;100.00
9721;BME280;4899;42.644;23.366;2023-05-10T07:46:44;94597.91;;;9.35;100.00
9721;BME280;4899;42.644;23.366;2023-05-10T07:49:09;94599.25;;;9.46;100.00
9721;BME280;4899;42.644;23.366;2023-05-10T07:51:35;94587.44;;;9.45;100.00
9721;BME280;4899;42.644;23.366;2023-05-10T07:54:00;94596.56;;;9.51;100.00
9721;BME280;4899;42.644;23.366;2023-05-10T07:56:32;94599.59;;;9.53;100.00
9721;BME280;4899;42.644;23.366;2023-05-10T07:58:59;94595.28;;;9.63;100.00
9721;BME280;4899;42.644;23.366;2023-05-10T08:01:25;94598.50;;;9.68;100.00
9721;BME280;4899;42.644;23.366;2023-05-10T08:03:51;94605.81;;;9.75;100.00
9721;BME280;4899;42.644;23.366;2023-05-10T08:06:19;94601.00;;;9.82;100.00
9721;BME280;4899;42.644;23.366;2023-05-10T08:08:46;94595.75;;;9.87;100.00
9721;BME280;4899;42.644;23.366;2023-05-10T08:11:15;94597.72;;;9.90;100.00
9721;BME280;4899;42.644;23.366;2023-05-10T08:13:40;94594.94;;;10.00;100.00
9721;BME280;4899;42.644;23.366;2023-05-10T08:16:05;94600.38;;;9.99;100.00
9721;BME280;4899;42.644;23.366;2023-05-10T08:18:32;94597.22;;;10.02;100.00
9721;BME280;4899;42.644;23.366;2023-05-10T08:20:57;94565.97;;;9.86;100.00
9721;BME280;4899;42.644;23.366;2023-05-10T08:23:23;94602.22;;;10.07;100.00
9721;BME280;4899;42.644;23.366;2023-05-10T08:25:48;94601.94;;;10.08;100.00
9721;BME280;4899;42.644;23.366;2023-05-10T08:28:13;94596.34;;;10.06;100.00
9721;BME280;4899;42.644;23.366;2023-05-10T08:30:39;94602.28;;;10.15;100.00
9721;BME280;4899;42.644;23.366;2023-05-10T08:33:04;94604.47;;;10.22;100.00
9721;BME280;4899;42.644;23.366;2023-05-10T08:35:30;94606.31;;;10.30;100.00
9721;BME280;4899;42.644;23.366;2023-05-10T08:37:56;94607.84;;;10.31;100.00
9721;BME280;4899;42.644;23.366;2023-05-10T08:40:23;94598.16;;;10.28;100.00
9721;BME280;4899;42.644;23.366;2023-05-10T08:43:00;94614.66;;;10.36;100.00
9721;BME280;4899;42.644;23.366;2023-05-10T08:45:32;94616.78;;;10.34;100.00
9721;BME280;4899;42.644;23.366;2023-05-10T08:48:00;94606.03;;;10.32;100.00
9721;BME280;4899;42.644;23.366;2023-05-10T08:50:27;94610.00;;;10.38;100.00
9721;BME280;4899;42.644;23.366;2023-05-10T08:52:55;94614.06;;;10.39;100.00
9721;BME280;4899;42.644;23.366;2023-05-10T08:55:23;94610.13;;;10.33;100.00
9721;BME280;4899;42.644;23.366;2023-05-10T08:57:49;94615.88;;;10.38;100.00
9721;BME280;4899;42.644;23.366;2023-05-10T09:00:15;94618.16;;;10.40;100.00
9721;BME280;4899;42.644;23.366;2023-05-10T09:02:44;94599.22;;;10.27;100.00
9721;BME280;4899;42.644;23.366;2023-05-10T09:05:11;94603.72;;;10.22;100.00
9721;BME280;4899;42.644;23.366;2023-05-10T09:07:37;94612.81;;;10.28;100.00
9721;BME280;4899;42.644;23.366;2023-05-10T09:10:04;94611.31;;;10.27;100.00
9721;BME280;4899;42.644;23.366;2023-05-10T09:12:29;94617.53;;;10.34;100.00
9721;BME280;4899;42.644;23.366;2023-05-10T09:14:55;94622.09;;;10.37;100.00
9721;BME280;4899;42.644;23.366;2023-05-10T09:17:23;94607.19;;;10.48;100.00
9721;BME280;4899;42.644;23.366;2023-05-10T09:19:49;94611.47;;;10.61;100.00
9721;BME280;4899;42.644;23.366;2023-05-10T09:22:14;94601.53;;;10.68;100.00
9721;BME280;4899;42.644;23.366;2023-05-10T09:24:42;94608.81;;;10.84;100.00
9721;BME280;4899;42.644;23.366;2023-05-10T09:27:10;94609.78;;;10.96;100.00
9721;BME280;4899;42.644;23.366;2023-05-10T09:29:39;94578.91;;;10.96;100.00
9721;BME280;4899;42.644;23.366;2023-05-10T09:32:05;94589.97;;;11.14;100.00
9721;BME280;4899;42.644;23.366;2023-05-10T09:34:32;94585.16;;;11.21;100.00
9721;BME280;4899;42.644;23.366;2023-05-10T09:36:59;94584.41;;;11.29;100.00
9721;BME280;4899;42.644;23.366;2023-05-10T09:39:38;94594.88;;;11.42;100.00
9721;BME280;4899;42.644;23.366;2023-05-10T09:42:06;94601.25;;;11.44;100.00
9721;BME280;4899;42.644;23.366;2023-05-10T09:44:33;94589.41;;;11.43;100.00
9721;BME280;4899;42.644;23.366;2023-05-10T09:46:59;94591.53;;;11.58;100.00
9721;BME280;4899;42.644;23.366;2023-05-10T09:49:25;94597.31;;;11.73;100.00
9721;BME280;4899;42.644;23.366;2023-05-10T09:52:07;94598.06;;;11.73;100.00
9721;BME280;4899;42.644;23.366;2023-05-10T09:54:33;94582.13;;;11.62;100.00
9721;BME280;4899;42.644;23.366;2023-05-10T09:57:00;94595.63;;;11.68;100.00
9721;BME280;4899;42.644;23.366;2023-05-10T09:59:26;94597.16;;;11.86;100.00
9721;BME280;4899;42.644;23.366;2023-05-10T10:01:57;94578.06;;;11.87;100.00
9721;BME280;4899;42.644;23.366;2023-05-10T10:04:23;94591.69;;;11.96;100.00
9721;BME280;4899;42.644;23.366;2023-05-10T10:07:04;94584.72;;;11.80;100.00
9721;BME280;4899;42.644;23.366;2023-05-10T10:09:30;94590.63;;;11.89;100.00
9721;BME280;4899;42.644;23.366;2023-05-10T10:11:57;94573.94;;;11.78;100.00
9721;BME280;4899;42.644;23.366;2023-05-10T10:14:23;94578.97;;;11.74;100.00
9721;BME280;4899;42.644;23.366;2023-05-10T10:16:52;94576.53;;;11.78;100.00
9721;BME280;4899;42.644;23.366;2023-05-10T10:19:20;94563.78;;;11.64;100.00
9721;BME280;4899;42.644;23.366;2023-05-10T10:21:47;94573.50;;;11.76;100.00
9721;BME280;4899;42.644;23.366;2023-05-10T10:24:13;94586.41;;;11.84;100.00
9721;BME280;4899;42.644;23.366;2023-05-10T10:26:38;94574.13;;;11.81;100.00
9721;BME280;4899;42.644;23.366;2023-05-10T10:31:55;94575.31;;;11.58;100.00
9721;BME280;4899;42.644;23.366;2023-05-10T10:34:27;94561.84;;;11.52;100.00
9721;BME280;4899;42.644;23.366;2023-05-10T10:36:55;94584.41;;;11.64;100.00
9721;BME280;4899;42.644;23.366;2023-05-10T10:39:21;94571.81;;;11.62;100.00
9721;BME280;4899;42.644;23.366;2023-05-10T10:41:55;94581.69;;;11.69;100.00
9721;BME280;4899;42.644;23.366;2023-05-10T10:49:25;94566.66;;;11.88;100.00
9721;BME280;4899;42.644;23.366;2023-05-10T10:54:39;94568.44;;;12.22;100.00
9721;BME280;4899;42.644;23.366;2023-05-10T10:57:11;94578.16;;;12.25;100.00
9721;BME280;4899;42.644;23.366;2023-05-10T10:59:42;94578.00;;;12.22;100.00
9721;BME280;4899;42.644;23.366;2023-05-10T11:02:09;94577.88;;;12.10;100.00
9721;BME280;4899;42.644;23.366;2023-05-10T11:04:43;94594.22;;;12.22;100.00
9721;BME280;4899;42.644;23.366;2023-05-10T11:07:17;94580.41;;;12.27;100.00
9721;BME280;4899;42.644;23.366;2023-05-10T11:09:43;94578.28;;;12.29;100.00
9721;BME280;4899;42.644;23.366;2023-05-10T11:12:09;94575.81;;;12.41;100.00
9721;BME280;4899;42.644;23.366;2023-05-10T11:14:35;94580.03;;;12.54;100.00
9721;BME280;4899;42.644;23.366;2023-05-10T11:17:01;94573.28;;;12.71;100.00
9721;BME280;4899;42.644;23.366;2023-05-10T11:19:29;94565.16;;;12.81;100.00
9721;BME280;4899;42.644;23.366;2023-05-10T11:24:30;94572.72;;;12.94;100.00
9721;BME280;4899;42.644;23.366;2023-05-10T11:26:56;94579.88;;;12.89;100.00
9721;BME280;4899;42.644;23.366;2023-05-10T11:29:21;94574.63;;;12.77;100.00
9721;BME280;4899;42.644;23.366;2023-05-10T11:31:48;94578.13;;;12.72;100.00
9721;BME280;4899;42.644;23.366;2023-05-10T11:34:28;94580.28;;;12.61;100.00
9721;BME280;4899;42.644;23.366;2023-05-10T11:36:56;94581.81;;;12.62;100.00
9721;BME280;4899;42.644;23.366;2023-05-10T11:39:26;94544.72;;;12.38;100.00
9721;BME280;4899;42.644;23.366;2023-05-10T11:41:52;94578.78;;;12.60;100.00
9721;BME280;4899;42.644;23.366;2023-05-10T11:44:19;94577.16;;;12.47;100.00
9721;BME280;4899;42.644;23.366;2023-05-10T11:46:44;94587.66;;;12.42;100.00
9721;BME280;4899;42.644;23.366;2023-05-10T11:49:10;94578.56;;;12.36;100.00
9721;BME280;4899;42.644;23.366;2023-05-10T11:51:36;94583.16;;;12.22;100.00
9721;BME280;4899;42.644;23.366;2023-05-10T11:54:08;94581.66;;;12.21;100.00
9721;BME280;4899;42.644;23.366;2023-05-10T11:56:34;94583.47;;;12.12;100.00
9721;BME280;4899;42.644;23.366;2023-05-10T11:59:00;94584.41;;;12.16;100.00
9721;BME280;4899;42.644;23.366;2023-05-10T12:01:27;94577.25;;;12.21;100.00
9721;BME280;4899;42.644;23.366;2023-05-10T12:03:55;94568.75;;;12.21;100.00
9721;BME280;4899;42.644;23.366;2023-05-10T12:06:37;94581.44;;;12.35;100.00
9721;BME280;4899;42.644;23.366;2023-05-10T12:09:06;94578.53;;;12.45;100.00
9721;BME280;4899;42.644;23.366;2023-05-10T12:11:36;94574.22;;;12.57;100.00
9721;BME280;4899;42.644;23.366;2023-05-10T12:14:04;94565.09;;;12.69;100.00
9721;BME280;4899;42.644;23.366;2023-05-10T12:16:30;94554.63;;;12.65;100.00
9721;BME280;4899;42.644;23.366;2023-05-10T12:18:57;94556.81;;;12.84;100.00
9721;BME280;4899;42.644;23.366;2023-05-10T12:21:24;94553.53;;;12.75;100.00
9721;BME280;4899;42.644;23.366;2023-05-10T12:23:54;94553.69;;;12.99;100.00
9721;BME280;4899;42.644;23.366;2023-05-10T12:26:27;94560.16;;;13.14;100.00
9721;BME280;4899;42.644;23.366;2023-05-10T12:28:54;94559.66;;;13.20;100.00
9721;BME280;4899;42.644;23.366;2023-05-10T12:31:19;94549.81;;;13.14;100.00
9721;BME280;4899;42.644;23.366;2023-05-10T12:33:45;94553.44;;;13.21;100.00
9721;BME280;4899;42.644;23.366;2023-05-10T12:36:15;94551.41;;;13.27;100.00
9721;BME280;4899;42.644;23.366;2023-05-10T12:38:42;94541.16;;;13.18;100.00
9721;BME280;4899;42.644;23.366;2023-05-10T12:41:11;94538.69;;;13.13;100.00
9721;BME280;4899;42.644;23.366;2023-05-10T12:43:37;94549.19;;;13.17;100.00
9721;BME280;4899;42.644;23.366;2023-05-10T12:46:12;94538.38;;;12.94;100.00
9721;BME280;4899;42.644;23.366;2023-05-10T12:48:39;94536.00;;;12.89;100.00
9721;BME280;4899;42.644;23.366;2023-05-10T12:51:05;94542.19;;;12.88;100.00
9721;BME280;4899;42.644;23.366;2023-05-10T12:53:35;94542.25;;;12.79;100.00
9721;BME280;4899;42.644;23.366;2023-05-10T12:56:00;94530.53;;;12.82;100.00
9721;BME280;4899;42.644;23.366;2023-05-10T12:58:26;94529.66;;;12.78;100.00
9721;BME280;4899;42.644;23.366;2023-05-10T13:00:52;94516.94;;;12.73;100.00
9721;BME280;4899;42.644;23.366;2023-05-10T13:03:17;94513.72;;;12.76;100.00
9721;BME280;4899;42.644;23.366;2023-05-10T13:05:43;94516.88;;;12.81;100.00
9721;BME280;4899;42.644;23.366;2023-05-10T13:08:08;94505.28;;;12.67;100.00
9721;BME280;4899;42.644;23.366;2023-05-10T13:10:33;94512.53;;;12.73;100.00
9721;BME280;4899;42.644;23.366;2023-05-10T13:12:59;94514.63;;;12.80;100.00
9721;BME280;4899;42.644;23.366;2023-05-10T13:15:25;94515.38;;;12.80;100.00
9721;BME280;4899;42.644;23.366;2023-05-10T13:17:51;94512.47;;;12.82;100.00
9721;BME280;4899;42.644;23.366;2023-05-10T13:20:16;94506.25;;;12.83;100.00
9721;BME280;4899;42.644;23.366;2023-05-10T13:22:43;94506.94;;;12.71;100.00
9721;BME280;4899;42.644;23.366;2023-05-10T13:25:09;94501.78;;;12.62;100.00
9721;BME280;4899;42.644;23.366;2023-05-10T13:27:36;94508.66;;;12.58;100.00
9721;BME280;4899;42.644;23.366;2023-05-10T13:30:02;94511.22;;;12.58;100.00
9721;BME280;4899;42.644;23.366;2023-05-10T13:32:28;94509.16;;;12.52;100.00
9721;BME280;4899;42.644;23.366;2023-05-10T13:34:54;94508.38;;;12.51;100.00
9721;BME280;4899;42.644;23.366;2023-05-10T13:37:20;94485.97;;;12.43;100.00
9721;BME280;4899;42.644;23.366;2023-05-10T13:39:47;94487.13;;;12.54;100.00
9721;BME280;4899;42.644;23.366;2023-05-10T13:42:13;94478.44;;;12.59;100.00